首页
METAR-TAF:

METAR-TAF

机场 :

Muscle Shoals, 阿拉巴马州, 美国

纬度: 34-44-38N, 经度: 087-35-58W, 海拔: 167米

当前天气观测

该预报发布于20分钟前的08:53 UTC
风速4节,风向东北
温度 15°C
湿度 77%
气压 1022 hPa
能見度: 16.1公里
天空无云

METAR: KMSL 010853Z AUTO 04004KT 10SM CLR 15/11 A3019 RMK AO2 SLP219 T01500106 53003

时间: 04:13 (09:13 UTC)

预报

该预报发布于3小时和53分钟前的05:20 UTC
预报有效从01日的 06点(UTC)到 02日的 06点(UTC)
风速5节,风向东北
能見度: 10公里
天空无云
从 01日的 1300点(UTC)
风速5节,风向东转东北
能見度: 10公里
天空无云
从 01日的 1600点(UTC)
风速8节,风向,有时为15节阵风
能見度: 10公里
天空无云
从 02日的 0200点(UTC)
风速4节,风向多变
能見度: 10公里
天空无云

TAF: KMSL 010520Z 0106/0206 04005KT P6SM SKC FM011300 07005KT P6SM SKC FM011600 10008G15KT P6SM SKC FM020200 VRB04KT P6SM SKC

超过4000个机场的气象观测和天气预报(METAR&TAF报告)。

可查询的气象台以黄色和红色小点在地图上表示。

将鼠标移到小点上方,可查看气象台名称。

然后点击查看天气观测和预报。

如需切换地图:点击带黑十字的绿色按钮放大地图;点击带横线的绿色按钮缩小地图;或者点击绿色箭头查看邻近地区的地图。


METAR-TAF: